Погода Гилгитна 2 недели

Пенджаб, Пакистан

22 июля-04 августа
  • 22июля
    Сегодня
    +30°
    +40°
    Практически безоблачно
    ВремяПогодаТемператураВлажностьДавлениеВетер, м/сВероятность осадков
    02:00Практически безоблачно+32°C48 %641 мм0.6 м/с3 %
    05:00Практически безоблачно+30°C54 %642 мм1.1 м/с5 %
    08:00Ясно и безоблачно+33°C44 %643 мм0.5 м/с3 %
    11:00Практически безоблачно+37°C36 %644 мм0.3 м/с9 %
    14:00Практически безоблачно+39°C32 %642 мм0.6 м/с12 %
    17:00Ясно и безоблачно+40°C29 %641 мм0.1 м/с8 %
    20:00Ясно и безоблачно+36°C45 %640 мм1.9 м/с2 %
    23:00Ясно и безоблачно+33°C51 %640 мм1.7 м/с2 %
  • 23июля
    Вторник
    +31°
    +41°
    Небольшая облачность
    ВремяПогодаТемператураВлажностьДавлениеВетер, м/сВероятность осадков
    02:00Ясно и безоблачно+31°C53 %639 мм1.7 м/с1 %
    05:00Ясно и безоблачно+31°C53 %639 мм1.6 м/с2 %
    08:00Ясно и безоблачно+34°C37 %642 мм0.4 м/с3 %
    11:00Небольшая облачность+38°C31 %641 мм0.0 м/с16 %
    14:00Небольшая облачность+40°C30 %641 мм0.4 м/с33 %
    17:00Практически безоблачно+40°C33 %640 мм0.2 м/с33 %
    20:00Практически безоблачно+36°C51 %639 мм1.4 м/с21 %
    23:00Небольшая облачность+33°C58 %639 мм1.7 м/с18 %
  • 24июля
    Среда
    +31°
    +40°
    Практически безоблачно
    ВремяПогодаТемператураВлажностьДавлениеВетер, м/сВероятность осадков
    02:00Небольшая облачность+32°C67 %640 мм1.4 м/с27 %
    05:00Ясно и безоблачно+31°C64 %640 мм1.5 м/с23 %
    08:00Практически безоблачно+34°C47 %641 мм0.8 м/с18 %
    11:00Практически безоблачно+37°C39 %641 мм0.1 м/с35 %
    14:00Практически безоблачно+40°C32 %639 мм0.4 м/с40 %
    17:00Практически безоблачно+39°C36 %638 мм0.5 м/с43 %
    20:00Ясно и безоблачно+35°C50 %638 мм1.7 м/с24 %
    23:00Практически безоблачно+33°C55 %638 мм1.7 м/с13 %
  • 25июля
    Четверг
    +31°
    +41°
    Практически безоблачно
    ВремяПогодаТемператураВлажностьДавлениеВетер, м/сВероятность осадков
    02:00Практически безоблачно+32°C57 %637 мм0.8 м/с19 %
    05:00Ясно и безоблачно+33°C45 %638 мм0.5 м/с19 %
    08:00Ясно и безоблачно+34°C42 %639 мм0.5 м/с13 %
    11:00Ясно и безоблачно+38°C34 %640 мм0.2 м/с37 %
    14:00Практически безоблачно+41°C29 %639 мм0.2 м/с44 %
    17:00Практически безоблачно+41°C29 %638 мм0.3 м/с35 %
    20:00Ясно и безоблачно+37°C44 %638 мм1.7 м/с8 %
    23:00Ясно и безоблачно+34°C50 %638 мм2.0 м/с4 %
  • 26июля
    Пятница
    +32°
    +44°
    Ясно и безоблачно
    ВремяПогодаТемператураВлажностьДавлениеВетер, м/сВероятность осадков
    02:00Ясно и безоблачно+33°C52 %638 мм1.6 м/с5 %
    05:00Ясно и безоблачно+32°C49 %639 мм1.4 м/с3 %
    08:00Ясно и безоблачно+35°C35 %641 мм0.8 м/с3 %
    11:00Ясно и безоблачно+40°C29 %641 мм0.1 м/с16 %
    14:00Ясно и безоблачно+44°C21 %640 мм0.5 м/с23 %
    17:00Ясно и безоблачно+43°C21 %639 мм1.2 м/с16 %
    20:00Ясно и безоблачно+38°C35 %638 мм1.8 м/с2 %
    23:00Ясно и безоблачно+36°C35 %639 мм1.9 м/с2 %
Мы используем cookies
Соглашаюсь